Time;durP1;ratioP1;P1;durP2;ratioP2;P2;SDS_P1;SDS_P2;PMS_P1;PMS_P2;Temp;Humidity;BMP_temperature;BMP_pressure;BME280_temperature;BME280_humidity;BME280_pressure;Samples;Min_cycle;Max_cycle;Signal;HPM_P1;HPM_P2
2021/05/10 00:01:04;;;;;;;7.15;4.83;;;;;;;3.27;68.39;101228.30;1761273;80;21158;-77
2021/05/10 00:03:33;;;;;;;7.55;3.83;;;;;;;3.22;68.48;101221.11;1766180;79;21096;-75
2021/05/10 00:06:00;;;;;;;5.33;3.58;;;;;;;3.20;68.60;101226.84;1781711;80;21058;-75
2021/05/10 00:08:29;;;;;;;7.65;3.42;;;;;;;3.18;68.64;101230.78;1773921;79;21842;-75
2021/05/10 00:10:57;;;;;;;5.37;3.27;;;;;;;3.17;68.68;101229.08;1777524;79;21157;-75
2021/05/10 00:13:25;;;;;;;4.67;3.15;;;;;;;3.16;68.71;101228.23;1778048;79;21727;-74
2021/05/10 00:15:54;;;;;;;4.72;3.50;;;;;;;3.16;68.69;101228.69;1771552;79;21178;-75
2021/05/10 00:18:23;;;;;;;6.25;3.52;;;;;;;3.14;68.69;101230.50;1795287;79;21308;-75
2021/05/10 00:20:52;;;;;;;6.08;3.42;;;;;;;3.14;68.73;101230.50;1747016;80;21061;-75
2021/05/10 00:23:21;;;;;;;7.15;3.50;;;;;;;3.11;68.84;101230.63;1749926;80;21071;-75
2021/05/10 00:25:48;;;;;;;10.32;3.87;;;;;;;3.09;68.92;101233.75;1756286;81;21179;-75
2021/05/10 00:28:17;;;;;;;7.30;3.47;;;;;;;3.09;68.95;101232.44;1793121;79;21124;-75
2021/05/10 00:30:45;;;;;;;5.37;3.00;;;;;;;3.07;69.05;101234.23;1741348;80;21174;-77
2021/05/10 00:33:13;;;;;;;4.72;3.30;;;;;;;3.04;69.08;101233.03;1756258;81;23069;-74
2021/05/10 00:35:42;;;;;;;3.98;2.92;;;;;;;3.02;69.10;101232.24;1769384;79;21085;-75
2021/05/10 00:38:09;;;;;;;4.92;3.00;;;;;;;3.01;69.15;101230.09;1757572;81;21100;-75
2021/05/10 00:40:38;;;;;;;5.28;2.70;;;;;;;2.96;69.24;101224.61;1765806;79;21061;-75
2021/05/10 00:43:05;;;;;;;3.95;2.87;;;;;;;2.92;69.27;101228.25;1753841;81;21157;-74
2021/05/10 00:45:33;;;;;;;4.53;2.90;;;;;;;2.88;69.34;101231.39;1738764;79;22080;-75
2021/05/10 00:48:02;;;;;;;4.28;3.10;;;;;;;2.83;69.38;101231.56;1763497;80;21259;-74
2021/05/10 00:50:30;;;;;;;7.55;3.10;;;;;;;2.80;69.45;101228.22;1763849;79;21152;-76
2021/05/10 00:52:58;;;;;;;4.45;3.00;;;;;;;2.76;69.44;101227.45;1767420;79;21159;-75
2021/05/10 00:55:26;;;;;;;4.53;3.33;;;;;;;2.74;69.48;101221.44;1765772;79;21172;-75
2021/05/10 00:58:04;;;;;;;4.28;3.22;;;;;;;2.74;69.59;101225.80;1767745;79;22066;-75
2021/05/10 01:00:35;;;;;;;5.87;3.58;;;;;;;2.72;69.65;101228.47;1760053;79;21231;-75
2021/05/10 01:03:03;;;;;;;5.80;3.33;;;;;;;2.70;69.70;101221.57;1764761;79;21161;-76
2021/05/10 01:05:30;;;;;;;5.50;3.60;;;;;;;2.66;69.81;101220.83;1779598;79;21213;-74
2021/05/10 01:07:57;;;;;;;4.85;3.10;;;;;;;2.65;69.90;101218.28;1764017;81;21426;-74
2021/05/10 01:10:26;;;;;;;4.05;2.85;;;;;;;2.65;69.95;101214.37;1767532;79;22511;-76
2021/05/10 01:12:53;;;;;;;3.42;2.95;;;;;;;2.64;70.02;101216.58;1768638;79;21065;-75
2021/05/10 01:15:24;;;;;;;5.42;3.12;;;;;;;2.60;70.03;101214.50;1770667;79;21065;-74
2021/05/10 01:17:52;;;;;;;4.97;3.50;;;;;;;2.59;70.04;101215.41;1765154;80;21084;-75
2021/05/10 01:20:21;;;;;;;6.15;3.27;;;;;;;2.59;70.09;101208.89;1764411;81;21062;-75
2021/05/10 01:22:51;;;;;;;8.18;3.10;;;;;;;2.57;70.19;101208.94;1787276;79;22989;-74
2021/05/10 01:25:22;;;;;;;5.45;2.87;;;;;;;2.55;70.29;101209.45;1778992;79;21142;-75
2021/05/10 01:27:50;;;;;;;5.83;3.00;;;;;;;2.53;70.29;101207.36;1766306;79;21345;-75
2021/05/10 01:30:25;;;;;;;4.20;3.05;;;;;;;2.51;70.33;101214.80;1765632;79;21313;-76
2021/05/10 01:32:54;;;;;;;6.78;3.15;;;;;;;2.49;70.42;101214.86;1754448;81;21066;-74
2021/05/10 01:35:26;;;;;;;5.55;3.22;;;;;;;2.45;70.50;101209.80;1758353;81;22057;-74
2021/05/10 01:37:54;;;;;;;7.75;3.12;;;;;;;2.43;70.54;101211.62;1749019;79;21136;-74
2021/05/10 01:40:22;;;;;;;5.12;3.10;;;;;;;2.41;70.56;101209.48;1764409;81;21086;-74
2021/05/10 01:42:50;;;;;;;5.30;3.35;;;;;;;2.39;70.58;101210.84;1758218;79;21560;-75
2021/05/10 01:45:18;;;;;;;5.75;3.37;;;;;;;2.38;70.63;101216.96;1758939;79;21056;-75
2021/05/10 01:47:47;;;;;;;4.33;2.85;;;;;;;2.35;70.74;101220.98;1765980;79;22082;-75
2021/05/10 01:50:18;;;;;;;4.67;3.10;;;;;;;2.34;70.79;101219.73;1763733;80;21077;-75
2021/05/10 01:52:46;;;;;;;6.70;3.30;;;;;;;2.34;70.83;101224.95;1769742;79;21135;-74
2021/05/10 01:55:15;;;;;;;5.45;3.40;;;;;;;2.34;70.89;101227.10;1760264;81;21065;-75
2021/05/10 01:57:48;;;;;;;6.35;3.62;;;;;;;2.33;70.93;101233.22;1778818;79;21477;-76
2021/05/10 02:00:20;;;;;;;6.67;3.33;;;;;;;2.31;70.95;101233.69;1761172;79;21592;-76
2021/05/10 02:02:48;;;;;;;5.10;3.00;;;;;;;2.28;71.01;101245.08;1763261;79;21132;-74
2021/05/10 02:05:21;;;;;;;4.30;3.17;;;;;;;2.24;71.12;101244.78;1770997;79;21180;-75
2021/05/10 02:07:55;;;;;;;5.67;3.58;;;;;;;2.22;71.19;101243.98;1766890;79;21452;-74
2021/05/10 02:10:31;;;;;;;4.72;3.67;;;;;;;2.19;71.33;101245.36;1761905;79;21060;-74
2021/05/10 02:13:05;;;;;;;5.58;3.67;;;;;;;2.21;71.40;101257.04;1764524;79;22123;-75
2021/05/10 02:15:36;;;;;;;6.08;3.62;;;;;;;2.22;71.50;101258.32;1766917;79;21169;-74
2021/05/10 02:18:04;;;;;;;4.50;3.67;;;;;;;2.21;71.56;101255.73;1784407;79;21333;-75
2021/05/10 02:20:32;;;;;;;5.60;3.62;;;;;;;2.20;71.66;101261.85;1764611;79;21116;-76
2021/05/10 02:23:07;;;;;;;7.78;4.20;;;;;;;2.19;71.76;101258.39;1758835;79;21045;-74
2021/05/10 02:25:42;;;;;;;6.87;4.28;;;;;;;2.19;71.80;101258.39;1761720;80;22114;-74
2021/05/10 02:28:10;;;;;;;5.35;3.90;;;;;;;2.18;71.86;101261.91;1757357;80;21352;-75
2021/05/10 02:30:39;;;;;;;4.97;4.00;;;;;;;2.17;71.89;101265.86;1766505;79;21107;-75
2021/05/10 02:33:12;;;;;;;6.35;4.08;;;;;;;2.17;71.98;101269.77;1755969;81;21138;-75
2021/05/10 02:35:40;;;;;;;3.70;2.92;;;;;;;2.15;72.03;101267.22;1761036;79;21072;-74
2021/05/10 02:38:08;;;;;;;5.97;4.10;;;;;;;2.13;72.17;101269.48;1765426;80;22059;-75
2021/05/10 02:40:36;;;;;;;6.42;3.90;;;;;;;2.12;72.28;101271.20;1758264;81;21166;-74
2021/05/10 02:43:04;;;;;;;7.30;4.55;;;;;;;2.13;72.39;101269.02;1763493;79;21348;-75
2021/05/10 02:45:31;;;;;;;4.83;3.95;;;;;;;2.16;72.42;101276.74;1771099;79;21179;-74
2021/05/10 02:47:59;;;;;;;8.20;5.50;;;;;;;2.19;72.39;101279.70;1764242;81;21520;-76
2021/05/10 02:50:27;;;;;;;7.58;5.08;;;;;;;2.18;72.40;101282.75;1761636;81;21891;-74
2021/05/10 02:52:55;;;;;;;7.00;5.33;;;;;;;2.19;72.50;101283.61;1766215;79;21176;-74
2021/05/10 02:55:22;;;;;;;7.08;5.08;;;;;;;2.18;72.61;101284.51;1762936;80;21059;-75
2021/05/10 02:57:50;;;;;;;8.08;6.03;;;;;;;2.21;72.71;101287.02;1760089;80;21575;-74
2021/05/10 03:00:19;;;;;;;7.67;6.15;;;;;;;2.24;72.81;101286.94;1735251;79;21065;-75
2021/05/10 03:02:47;;;;;;;11.08;5.90;;;;;;;2.24;72.94;101282.58;1768944;79;22070;-75
2021/05/10 03:05:14;;;;;;;9.25;6.28;;;;;;;2.28;73.01;101288.55;1760948;79;21514;-75
2021/05/10 03:07:42;;;;;;;10.78;6.80;;;;;;;2.29;73.09;101283.73;1768790;81;21070;-75
2021/05/10 03:10:13;;;;;;;9.63;7.08;;;;;;;2.29;73.19;101291.09;1746694;80;21076;-77
2021/05/10 03:12:42;;;;;;;10.00;7.37;;;;;;;2.32;73.26;101289.29;1751989;80;21087;-75
2021/05/10 03:15:13;;;;;;;13.53;8.58;;;;;;;2.34;73.33;101286.21;1769243;79;22082;-74
2021/05/10 03:17:41;;;;;;;16.10;10.48;;;;;;;2.36;73.34;101299.59;1768636;79;21090;-74
2021/05/10 03:20:16;;;;;;;11.60;7.65;;;;;;;2.40;73.46;101301.64;1783661;79;21113;-74
2021/05/10 03:22:44;;;;;;;9.45;6.33;;;;;;;2.43;73.55;101310.70;1780784;79;21034;-75
2021/05/10 03:25:12;;;;;;;10.15;7.28;;;;;;;2.47;73.61;101305.33;1774790;79;21054;-76
2021/05/10 03:27:40;;;;;;;12.25;8.28;;;;;;;2.56;73.62;101316.77;1716778;81;21633;-74
2021/05/10 03:30:13;;;;;;;13.80;8.55;;;;;;;2.64;73.56;101315.69;1755276;80;21158;-75
2021/05/10 03:32:42;;;;;;;13.43;8.88;;;;;;;2.73;73.51;101319.31;1775179;79;21141;-75
2021/05/10 03:35:11;;;;;;;11.75;8.33;;;;;;;2.81;73.45;101318.63;1804095;79;21508;-75
2021/05/10 03:37:38;;;;;;;12.15;7.80;;;;;;;2.90;73.45;101320.94;1779243;79;21140;-75
2021/05/10 03:40:10;;;;;;;11.80;7.70;;;;;;;2.99;73.46;101324.97;1781483;79;21961;-75
2021/05/10 03:42:39;;;;;;;9.90;7.03;;;;;;;3.06;73.49;101323.42;1771650;79;21148;-76
2021/05/10 03:45:10;;;;;;;11.05;7.10;;;;;;;3.16;73.46;101329.19;1798156;78;21160;-74
2021/05/10 03:47:41;;;;;;;10.45;7.22;;;;;;;3.24;73.41;101328.48;1740033;80;21425;-75
2021/05/10 03:50:17;;;;;;;10.45;6.65;;;;;;;3.34;73.36;101332.48;1747135;80;21567;-74
2021/05/10 03:52:46;;;;;;;9.18;6.67;;;;;;;3.43;73.21;101326.95;1752352;80;22079;-74
2021/05/10 03:55:15;;;;;;;9.03;6.42;;;;;;;3.52;73.02;101331.45;1755614;81;21066;-75
2021/05/10 03:57:43;;;;;;;9.20;6.72;;;;;;;3.62;72.90;101334.14;1752503;80;21102;-75
2021/05/10 04:00:12;;;;;;;10.95;6.95;;;;;;;3.71;72.82;101328.14;1754486;80;21092;-75
2021/05/10 04:02:40;;;;;;;9.70;7.47;;;;;;;3.82;72.72;101333.44;1749917;80;21573;-74
2021/05/10 04:08:02;;;;;;;13.70;9.10;;;;;;;4.05;72.64;101335.20;1790783;79;21150;-75
2021/05/10 04:15:57;;;;;;;11.48;7.75;;;;;;;4.47;72.54;101336.66;1744668;80;21130;-75
2021/05/10 04:18:25;;;;;;;12.18;7.50;;;;;;;4.63;72.58;101339.52;1782949;79;22983;-74
2021/05/10 04:20:53;;;;;;;12.15;8.63;;;;;;;4.75;72.55;101337.74;1772524;79;21086;-74
2021/05/10 04:23:21;;;;;;;14.78;8.43;;;;;;;4.88;72.48;101333.25;1751082;79;21222;-75
2021/05/10 04:25:51;;;;;;;14.53;9.90;;;;;;;5.00;72.40;101333.66;1771203;79;21533;-75
2021/05/10 04:28:25;;;;;;;12.47;9.40;;;;;;;5.13;72.36;101327.88;1773437;79;21153;-75
2021/05/10 04:30:53;;;;;;;15.70;10.48;;;;;;;5.28;72.33;101331.59;1771717;79;22076;-76
2021/05/10 04:33:31;;;;;;;19.70;11.57;;;;;;;5.42;72.20;101326.64;1771776;80;21477;-75
2021/05/10 04:35:59;;;;;;;19.00;11.55;;;;;;;5.57;72.15;101332.13;1787795;79;21197;-76
2021/05/10 04:38:28;;;;;;;23.05;12.68;;;;;;;5.71;72.09;101328.00;1770675;79;21140;-76
2021/05/10 04:40:56;;;;;;;20.10;12.98;;;;;;;5.87;72.07;101329.92;1769690;80;21128;-77
2021/05/10 04:43:24;;;;;;;21.42;13.90;;;;;;;6.01;72.07;101328.89;1771962;79;22523;-76
2021/05/10 04:45:53;;;;;;;24.57;13.68;;;;;;;6.16;72.16;101336.05;1774964;79;21080;-76
2021/05/10 04:48:21;;;;;;;25.65;14.13;;;;;;;6.37;72.39;101338.60;1803030;78;21402;-76
2021/05/10 04:50:49;;;;;;;20.27;12.93;;;;;;;6.58;72.56;101345.03;1784420;78;21470;-77
2021/05/10 04:53:16;;;;;;;21.17;12.95;;;;;;;6.78;72.62;101345.39;1759084;80;21466;-76
2021/05/10 04:55:44;;;;;;;15.68;10.00;;;;;;;6.99;72.59;101340.02;1789609;78;22072;-76
2021/05/10 04:58:12;;;;;;;14.47;10.43;;;;;;;7.15;72.56;101342.28;1763659;80;21186;-75
2021/05/10 05:00:39;;;;;;;14.43;10.10;;;;;;;7.32;72.49;101338.79;1767661;80;21448;-76
2021/05/10 05:03:07;;;;;;;16.23;9.43;;;;;;;7.48;72.33;101333.62;1780179;79;21089;-75
2021/05/10 05:05:34;;;;;;;15.05;9.10;;;;;;;7.63;72.11;101339.41;1777392;79;21122;-75
2021/05/10 05:08:02;;;;;;;13.32;8.88;;;;;;;7.79;71.78;101338.98;1769927;79;22517;-75
2021/05/10 05:10:29;;;;;;;12.37;8.70;;;;;;;7.93;71.01;101339.13;1767428;79;21161;-75
2021/05/10 05:12:57;;;;;;;28.47;11.30;;;;;;;8.06;70.38;101344.56;1759662;79;21122;-76
2021/05/10 05:15:25;;;;;;;41.42;17.42;;;;;;;8.19;69.05;101345.59;1756632;81;21162;-75
2021/05/10 05:17:52;;;;;;;46.37;18.65;;;;;;;8.31;68.25;101346.74;1773814;79;21484;-74
2021/05/10 05:20:20;;;;;;;56.33;20.77;;;;;;;8.44;66.96;101345.16;1759453;81;22013;-75
2021/05/10 05:22:47;;;;;;;38.83;14.40;;;;;;;8.60;66.42;101349.97;1767011;81;21426;-75
2021/05/10 05:25:15;;;;;;;23.85;11.22;;;;;;;8.75;65.40;101353.52;1770505;79;21056;-76
2021/05/10 05:27:42;;;;;;;27.27;12.00;;;;;;;8.92;63.96;101356.99;1768401;79;21069;-74
2021/05/10 05:30:12;;;;;;;77.03;29.02;;;;;;;9.10;63.26;101346.25;1796332;79;21061;-77
2021/05/10 05:32:39;;;;;;;162.07;55.20;;;;;;;9.26;62.21;101347.97;1775630;79;22063;-73
2021/05/10 05:35:08;;;;;;;144.85;49.55;;;;;;;9.38;61.11;101343.33;1792868;79;21268;-76
2021/05/10 05:37:37;;;;;;;127.90;43.52;;;;;;;9.48;60.43;101351.07;1778159;79;21148;-76
2021/05/10 05:40:07;;;;;;;99.80;36.05;;;;;;;9.59;60.17;101346.00;1772338;79;21190;-76
2021/05/10 05:42:34;;;;;;;56.50;20.75;;;;;;;9.68;58.92;101345.45;1736049;80;21416;-76
2021/05/10 05:45:05;;;;;;;51.37;20.37;;;;;;;9.79;56.25;101348.76;1770323;79;21833;-76
2021/05/10 05:47:32;;;;;;;50.20;18.82;;;;;;;9.91;55.18;101340.09;1770228;80;21089;-76
2021/05/10 05:50:00;;;;;;;35.15;13.90;;;;;;;10.02;54.32;101342.91;1770813;80;21128;-76
2021/05/10 05:52:27;;;;;;;25.23;10.50;;;;;;;10.13;53.39;101346.20;1771261;79;21105;-77
2021/05/10 05:54:56;;;;;;;21.12;8.35;;;;;;;10.20;51.51;101343.56;1764092;80;21252;-75
2021/05/10 05:57:24;;;;;;;21.35;7.92;;;;;;;10.29;49.32;101345.66;1774320;79;21898;-76
2021/05/10 05:59:51;;;;;;;17.98;7.60;;;;;;;10.40;48.19;101344.14;1773166;79;21557;-75
2021/05/10 06:02:18;;;;;;;17.82;7.58;;;;;;;10.50;48.02;101347.42;1762714;80;21559;-74
2021/05/10 06:04:46;;;;;;;15.23;7.12;;;;;;;10.59;46.07;101345.52;1761906;81;21134;-76
2021/05/10 06:07:14;;;;;;;29.87;10.75;;;;;;;10.71;45.32;101347.86;1756083;81;21062;-74
2021/05/10 06:09:42;;;;;;;34.43;11.78;;;;;;;10.82;45.86;101344.05;1756182;81;22112;-73
2021/05/10 06:12:10;;;;;;;28.15;10.70;;;;;;;10.95;45.69;101341.92;1790536;79;21630;-76
2021/05/10 06:14:38;;;;;;;22.02;9.48;;;;;;;11.01;45.89;101337.09;1786360;79;21117;-72
2021/05/10 06:17:07;;;;;;;21.62;8.60;;;;;;;11.11;46.37;101336.85;1762432;79;21152;-77
2021/05/10 06:19:35;;;;;;;23.98;9.28;;;;;;;11.22;46.65;101333.97;1761529;80;21440;-73
2021/05/10 06:22:03;;;;;;;23.95;8.80;;;;;;;11.32;45.75;101327.11;1759573;81;22773;-75
2021/05/10 06:24:31;;;;;;;18.50;8.33;;;;;;;11.42;45.90;101328.18;1759539;81;21101;-76
2021/05/10 06:26:58;;;;;;;18.95;8.10;;;;;;;11.51;45.66;101324.91;1761451;81;21147;-74
2021/05/10 06:29:28;;;;;;;12.47;6.70;;;;;;;11.58;44.86;101316.94;1761410;80;21116;-74
2021/05/10 06:31:55;;;;;;;7.28;4.08;;;;;;;11.65;44.00;101322.16;1733414;81;21169;-74
2021/05/10 06:34:23;;;;;;;4.87;3.15;;;;;;;11.73;42.34;101320.31;1773436;78;22490;-78
2021/05/10 06:36:50;;;;;;;2.75;1.77;;;;;;;11.80;41.26;101326.06;1761460;80;21622;-74
2021/05/10 06:39:18;;;;;;;3.40;1.98;;;;;;;11.88;39.55;101327.71;1758372;81;21105;-73
2021/05/10 06:41:45;;;;;;;6.17;2.10;;;;;;;11.97;39.67;101330.56;1782921;79;21416;-74
2021/05/10 06:44:13;;;;;;;6.42;2.75;;;;;;;12.09;39.16;101331.97;1748957;81;21337;-74
2021/05/10 06:46:40;;;;;;;5.83;2.70;;;;;;;12.19;39.79;101333.02;1780262;80;22101;-73
2021/05/10 06:49:08;;;;;;;5.20;1.65;;;;;;;12.33;38.97;101335.52;1780180;80;21205;-73
2021/05/10 06:51:36;;;;;;;2.98;1.80;;;;;;;12.43;38.08;101333.89;1777985;79;21636;-75
2021/05/10 06:54:03;;;;;;;3.52;1.70;;;;;;;12.49;38.01;101334.79;1792833;79;21160;-71
2021/05/10 06:56:31;;;;;;;11.10;2.05;;;;;;;12.56;36.93;101336.53;1780102;79;21078;-73
2021/05/10 06:58:59;;;;;;;5.40;2.10;;;;;;;12.59;37.15;101329.67;1761258;79;22511;-73
2021/05/10 07:01:26;;;;;;;7.33;1.90;;;;;;;12.68;37.68;101332.14;1765606;79;21560;-72
2021/05/10 07:03:54;;;;;;;4.30;2.00;;;;;;;12.78;37.78;101331.34;1764145;79;21426;-71
2021/05/10 07:06:22;;;;;;;10.00;2.30;;;;;;;12.88;37.28;101326.21;1761649;81;21061;-71
2021/05/10 07:08:49;;;;;;;5.17;1.95;;;;;;;13.01;37.03;101323.01;1795225;78;21117;-71
2021/05/10 07:11:16;;;;;;;3.35;1.37;;;;;;;13.09;36.54;101313.16;1820909;78;22054;-72
2021/05/10 07:13:44;;;;;;;3.90;1.80;;;;;;;13.16;36.07;101318.37;1794729;78;21404;-75
2021/05/10 07:16:11;;;;;;;4.00;1.72;;;;;;;13.22;35.85;101317.08;1793425;78;21070;-74
2021/05/10 07:18:39;;;;;;;3.65;2.08;;;;;;;13.28;35.47;101321.45;1801193;78;21107;-75
2021/05/10 07:21:07;;;;;;;6.45;1.95;;;;;;;13.27;34.28;101312.29;1794825;78;21136;-75
2021/05/10 07:23:36;;;;;;;5.30;1.82;;;;;;;13.27;35.54;101319.77;1818262;78;22051;-73
2021/05/10 07:26:04;;;;;;;4.67;1.27;;;;;;;13.35;35.49;101323.17;1757359;80;21086;-70
2021/05/10 07:28:31;;;;;;;3.12;1.32;;;;;;;13.38;33.22;101325.58;1774500;80;21062;-71
2021/05/10 07:30:59;;;;;;;5.00;1.60;;;;;;;13.34;32.88;101320.16;1791511;78;21059;-70
2021/05/10 07:33:26;;;;;;;3.85;1.62;;;;;;;13.33;34.15;101313.16;1767423;80;21146;-71
2021/05/10 07:35:53;;;;;;;6.12;1.80;;;;;;;13.45;35.10;101311.73;1766544;80;22508;-72
2021/05/10 07:38:21;;;;;;;2.52;1.30;;;;;;;13.54;34.00;101303.55;1772293;80;21100;-75
2021/05/10 07:40:49;;;;;;;3.37;1.45;;;;;;;13.56;33.23;101308.25;1763480;79;21170;-76
2021/05/10 07:43:16;;;;;;;2.98;1.22;;;;;;;13.63;33.29;101301.52;1759738;80;21622;-74
2021/05/10 07:45:44;;;;;;;1.60;0.93;;;;;;;13.65;33.71;101306.22;1761709;81;20930;-79
2021/05/10 07:48:11;;;;;;;1.50;1.00;;;;;;;13.72;33.86;101299.95;1749322;80;22060;-79
2021/05/10 07:50:39;;;;;;;2.35;1.10;;;;;;;13.81;32.92;101304.55;1756314;81;21026;-77
2021/05/10 07:53:06;;;;;;;2.70;1.15;;;;;;;13.88;33.43;101304.41;1813436;78;21125;-75
2021/05/10 07:55:36;;;;;;;2.42;1.17;;;;;;;13.97;34.41;101304.17;1797871;78;21066;-76
2021/05/10 07:58:04;;;;;;;1.67;1.12;;;;;;;14.07;31.82;101295.84;1803078;78;21086;-72
2021/05/10 08:00:37;;;;;;;3.35;1.40;;;;;;;14.01;32.59;101295.02;1777869;78;22519;-72
2021/05/10 08:03:08;;;;;;;2.47;1.50;;;;;;;14.04;33.00;101294.28;1761489;80;21504;-72
2021/05/10 08:05:37;;;;;;;2.62;1.82;;;;;;;14.10;33.56;101291.63;1734755;81;21527;-73
2021/05/10 08:08:06;;;;;;;3.72;1.98;;;;;;;14.23;34.54;101283.52;1746836;80;21502;-72
2021/05/10 08:10:33;;;;;;;4.42;1.75;;;;;;;14.41;35.00;101285.18;1740985;81;21176;-73
2021/05/10 08:13:01;;;;;;;2.58;1.70;;;;;;;14.55;34.26;101282.27;1750232;81;22516;-71
2021/05/10 08:15:28;;;;;;;4.12;1.80;;;;;;;14.57;32.88;101276.33;1748022;80;21049;-72
2021/05/10 08:17:57;;;;;;;4.80;2.15;;;;;;;14.55;33.68;101286.25;1749274;81;21477;-73
2021/05/10 08:20:27;;;;;;;4.35;1.95;;;;;;;14.54;33.10;101277.92;1757373;81;21188;-73
2021/05/10 08:22:54;;;;;;;6.75;2.05;;;;;;;14.56;33.27;101275.97;1755498;80;21197;-72
2021/05/10 08:25:22;;;;;;;3.85;2.00;;;;;;;14.60;33.38;101272.11;1759086;81;22103;-72
2021/05/10 08:27:50;;;;;;;2.85;1.60;;;;;;;14.60;32.79;101274.77;1758469;81;21712;-72
2021/05/10 08:30:18;;;;;;;2.52;1.55;;;;;;;14.65;33.74;101266.40;1748915;80;21176;-73
2021/05/10 08:32:45;;;;;;;6.12;1.70;;;;;;;14.72;32.69;101268.44;1757331;80;21149;-72
2021/05/10 08:35:13;;;;;;;4.40;1.57;;;;;;;14.71;32.73;101264.58;1742905;81;21153;-75
2021/05/10 08:37:41;;;;;;;3.83;1.70;;;;;;;14.74;33.65;101261.66;1754410;81;22522;-74
2021/05/10 08:40:09;;;;;;;5.72;2.95;;;;;;;14.86;33.11;101258.84;1749688;81;21176;-73
2021/05/10 08:42:37;;;;;;;4.87;1.95;;;;;;;14.85;32.05;101254.47;1753832;81;21471;-77
2021/05/10 08:45:07;;;;;;;2.92;1.60;;;;;;;14.86;32.58;101251.31;1763838;81;21173;-74
2021/05/10 08:47:35;;;;;;;1.77;1.35;;;;;;;14.90;32.28;101246.12;1764596;81;21477;-79
2021/05/10 08:50:05;;;;;;;3.55;1.40;;;;;;;14.98;33.33;101252.97;1758574;80;22077;-74
2021/05/10 08:52:36;;;;;;;1.40;1.17;;;;;;;15.08;31.97;101255.22;1753256;81;21258;-78
2021/05/10 08:55:06;;;;;;;3.20;1.25;;;;;;;15.16;32.47;101242.11;1747272;81;21133;-78
2021/05/10 08:57:34;;;;;;;2.47;1.30;;;;;;;15.24;31.94;101244.59;1751358;81;21489;-76
2021/05/10 09:00:04;;;;;;;3.55;1.50;;;;;;;15.31;32.83;101245.75;1754958;81;22201;-77
2021/05/10 09:02:33;;;;;;;2.42;1.42;;;;;;;15.35;31.25;101245.38;1719743;81;23063;-78
2021/05/10 09:05:17;;;;;;;1.82;1.35;;;;;;;15.39;31.32;101236.14;1734168;81;21196;-76
2021/05/10 09:08:06;;;;;;;1.65;1.20;;;;;;;15.36;30.82;101239.08;1763271;79;21675;-76
2021/05/10 09:10:34;;;;;;;2.55;1.50;;;;;;;15.25;30.51;101228.52;1733849;81;21346;-76
2021/05/10 09:13:01;;;;;;;1.72;1.40;;;;;;;15.18;32.52;101226.01;1763480;81;21191;-78
2021/05/10 09:15:34;;;;;;;2.22;1.20;;;;;;;15.31;31.43;101229.78;1763339;81;22039;-78
2021/05/10 09:18:08;;;;;;;2.15;1.60;;;;;;;15.46;31.72;101224.48;1763248;81;21166;-76
2021/05/10 09:20:40;;;;;;;1.65;1.40;;;;;;;15.60;31.92;101221.48;1763675;81;21175;-77
2021/05/10 09:23:12;;;;;;;1.70;1.27;;;;;;;15.78;30.62;101223.52;1766927;79;21138;-77
2021/05/10 09:25:45;;;;;;;3.55;1.57;;;;;;;15.74;28.84;101212.31;1762780;79;21171;-76
2021/05/10 09:28:24;;;;;;;4.00;1.70;;;;;;;15.54;30.49;101210.03;1757637;81;22076;-76
2021/05/10 09:30:58;;;;;;;2.20;1.10;;;;;;;15.63;31.03;101206.59;1762973;81;21200;-77
2021/05/10 09:33:28;;;;;;;1.82;1.35;;;;;;;15.87;31.90;101205.41;1758774;81;21168;-78
2021/05/10 09:36:07;;;;;;;2.52;1.40;;;;;;;16.08;31.82;101195.49;1754521;80;21145;-77
2021/05/10 09:38:37;;;;;;;3.12;1.60;;;;;;;16.20;30.75;101193.05;1782575;79;21177;-75
2021/05/10 09:41:08;;;;;;;2.42;1.35;;;;;;;16.39;31.35;101189.56;1770499;79;22958;-76
2021/05/10 09:43:39;;;;;;;2.60;1.32;;;;;;;16.49;29.37;101181.08;1770107;79;21182;-75
2021/05/10 09:46:12;;;;;;;2.00;1.50;;;;;;;16.53;30.92;101178.98;1750862;80;21141;-74
2021/05/10 09:48:44;;;;;;;2.17;1.35;;;;;;;16.59;29.13;101175.24;1745375;80;21181;-75
2021/05/10 09:51:16;;;;;;;1.90;1.40;;;;;;;16.64;27.78;101181.50;1774228;79;21165;-77
2021/05/10 09:53:50;;;;;;;2.08;1.20;;;;;;;16.44;28.09;101175.34;1763283;80;21870;-77
2021/05/10 09:58:59;;;;;;;3.58;1.37;;;;;;;16.27;27.67;101166.20;1764681;79;21157;-75
2021/05/10 10:01:47;;;;;;;3.12;1.30;;;;;;;16.30;29.85;101155.73;1763871;81;21138;-76
2021/05/10 10:04:17;;;;;;;1.62;1.25;;;;;;;16.58;29.21;101161.56;1763935;81;21139;-75
2021/05/10 10:06:46;;;;;;;3.45;1.32;;;;;;;16.81;27.47;101159.48;1763300;81;21603;-74
2021/05/10 10:09:15;;;;;;;2.33;1.50;;;;;;;16.76;27.62;101157.72;1763923;81;21489;-76
2021/05/10 10:11:43;;;;;;;1.47;1.20;;;;;;;16.76;28.49;101155.05;1764051;81;21386;-74
2021/05/10 10:14:10;;;;;;;3.45;1.20;;;;;;;16.94;28.62;101152.98;1765490;79;21060;-73
2021/05/10 10:16:39;;;;;;;2.33;1.42;;;;;;;17.09;29.24;101155.07;1764750;80;21105;-73
2021/05/10 10:19:07;;;;;;;4.20;1.40;;;;;;;17.33;29.28;101141.70;1763915;81;22051;-74
2021/05/10 10:21:37;;;;;;;2.20;1.30;;;;;;;17.56;28.69;101144.81;1763003;81;21583;-74
2021/05/10 10:24:06;;;;;;;2.02;1.27;;;;;;;17.67;28.36;101138.80;1765204;80;21087;-74
2021/05/10 10:26:38;;;;;;;4.65;1.85;;;;;;;17.82;28.34;101136.48;1760716;81;21068;-74
2021/05/10 10:29:12;;;;;;;1.95;1.40;;;;;;;17.89;27.37;101142.08;1764755;79;21193;-76
2021/05/10 10:31:45;;;;;;;2.80;1.30;;;;;;;17.88;26.22;101141.23;1751413;79;22069;-74
2021/05/10 10:34:30;;;;;;;2.10;1.30;;;;;;;17.79;26.80;101128.78;1761914;81;21097;-73
2021/05/10 10:36:59;;;;;;;1.92;1.05;;;;;;;17.92;27.04;101131.91;1764131;80;21125;-74
2021/05/10 10:39:30;;;;;;;2.65;1.40;;;;;;;18.04;26.40;101117.83;1764918;81;21139;-75
2021/05/10 10:42:25;;;;;;;2.45;2.02;;;;;;;18.14;26.75;101124.44;1763768;81;21588;-74
2021/05/10 10:44:56;;;;;;;4.10;1.27;;;;;;;18.36;25.72;101121.32;1765297;80;22972;-74
2021/05/10 10:47:45;;;;;;;1.40;1.30;;;;;;;18.55;26.98;101106.93;1752724;80;21508;-75
2021/05/10 10:50:16;;;;;;;1.47;1.15;;;;;;;18.68;26.86;101104.70;1731993;81;21109;-75
2021/05/10 10:52:58;;;;;;;2.67;1.20;;;;;;;18.87;26.88;101107.17;1765275;81;21084;-75
2021/05/10 10:55:31;;;;;;;1.90;1.00;;;;;;;18.87;24.28;101099.14;1765942;80;21175;-76
2021/05/10 10:58:20;;;;;;;1.95;1.10;;;;;;;18.52;24.06;101098.69;1761270;81;22054;-75
2021/05/10 11:01:09;;;;;;;1.35;1.05;;;;;;;18.26;25.03;101094.66;1763171;81;21336;-75
2021/05/10 11:03:37;;;;;;;2.65;1.20;;;;;;;18.39;25.95;101087.57;1709096;81;21180;-74
2021/05/10 11:06:08;;;;;;;1.72;1.20;;;;;;;18.65;25.14;101083.63;1780016;79;21164;-75
2021/05/10 11:08:46;;;;;;;1.98;1.40;;;;;;;18.79;24.54;101093.73;1765217;81;21144;-74
2021/05/10 11:11:37;;;;;;;1.40;1.07;;;;;;;18.86;24.98;101086.77;1765231;79;21884;-74
2021/05/10 11:14:05;;;;;;;1.32;1.00;;;;;;;18.88;24.64;101084.77;1765646;81;21488;-76
2021/05/10 11:16:48;;;;;;;1.32;1.20;;;;;;;18.80;24.53;101083.88;1765536;81;21376;-76
2021/05/10 11:19:35;;;;;;;2.00;1.30;;;;;;;18.78;24.59;101082.70;1765416;80;21603;-78
2021/05/10 11:22:34;;;;;;;1.40;1.22;;;;;;;18.97;25.26;101083.47;1756824;79;21175;-79
2021/05/10 11:25:39;;;;;;;2.17;1.37;;;;;;;19.30;26.25;101073.27;1764683;81;22974;-75
2021/05/10 11:28:28;;;;;;;1.57;1.20;;;;;;;19.59;24.44;101072.03;1764214;81;21176;-77
2021/05/10 11:31:14;;;;;;;2.47;1.50;;;;;;;19.60;22.69;101056.32;1767840;79;21501;-76
2021/05/10 11:33:59;;;;;;;1.92;1.25;;;;;;;19.45;25.88;101059.58;1773046;79;21048;-76
2021/05/10 11:36:37;;;;;;;2.05;1.25;;;;;;;19.72;25.43;101047.80;1779762;79;21188;-76
2021/05/10 11:39:10;;;;;;;1.32;1.15;;;;;;;19.94;25.52;101044.97;1790213;79;23001;-77
2021/05/10 11:41:45;;;;;;;2.62;1.17;;;;;;;20.10;23.66;101037.45;1765488;80;21124;-76
2021/05/10 11:44:22;;;;;;;;;;;;;;;20.09;23.94;101050.52;1752647;81;21089;-77
2021/05/10 11:46:55;;;;;;;1.67;1.20;;;;;;;20.03;23.59;101049.84;1744052;79;20240;-77
2021/05/10 11:49:32;;;;;;;1.25;1.00;;;;;;;20.02;23.35;101042.80;1774046;79;21076;-76
2021/05/10 11:52:09;;;;;;;2.10;1.17;;;;;;;19.95;22.49;101037.77;1759056;80;22076;-76